DRI Storm Peak Lab. Weather observations

Data are for 5 minute period ending at time listed.
 Day   Time    Ave.   Ave.  Ave.  Vector  Max.   Total    Baro.    Solar      Aerosol      Ave.  Ultrafine   Snow  
  of    of     Air    Rel.  Wind   Wind   Wind  Precip.   Pres.  Radiation   Aerosol      Ozone   Aerosol    Depth 
Year   Day     Temp.  Hum.  Speed  Dir.   Gust                               Ave.   Max.            Ave.           
2019   (MST)    F      %     mph   deg.    mph    in.      mb.     w/m2         #/cm3      ppbv    #/cm3      in.  
-------------------------------------------------------------------------------------------------------------------
 144   11:30   30.0    80   10.1   287    12.2   999.00    688.2    999.0    999000   999000   999.0    999000   999.0
 144   11:35   29.7    82    9.2   290    10.7   999.00    688.1    999.0    999000   999000   999.0    999000   999.0
 144   11:40   29.4    82    9.4   289    11.7   999.00    688.1    999.0    999000   999000   999.0    999000   999.0
 144   11:45   29.2    84    9.4   281    13.2   999.00    688.2    999.0    999000   999000   999.0    999000   999.0
 144   11:50   29.2    84    7.8   281    10.6   999.00    688.1    999.0    999000   999000   999.0    999000   999.0
 144   11:55   29.3    84    9.8   287    14.6   999.00    688.1    999.0    999000   999000   999.0    999000   999.0
 144   12:00   29.1    84   11.9   291    15.0   999.00    688.0    999.0    999000   999000   999.0    999000   999.0
 144   12:05   29.4    85   10.2   296    13.9   999.00    688.1    999.0    999000   999000   999.0    999000   999.0
 144   12:10   29.5    84   11.7   297    15.4   999.00    688.1    999.0    999000   999000   999.0    999000   999.0
 144   12:15   29.4    85   10.4   298    12.4   999.00    688.1    999.0    999000   999000   999.0    999000   999.0
 144   12:20   29.5    86    9.5   286    12.0   999.00    688.1    999.0    999000   999000   999.0    999000   999.0
 144   12:25   30.3    84    9.2   295    13.0   999.00    688.1    999.0    999000   999000   999.0    999000   999.0
 144   12:30   30.4    83    8.1   289    10.9   999.00    688.1    999.0    999000   999000   999.0    999000   999.0
 144   12:35   31.7    78    8.1   288    11.7   999.00    688.1    999.0    999000   999000   999.0    999000   999.0
 144   12:40   32.5    74    8.6   281    13.0   999.00    688.1    999.0    999000   999000   999.0    999000   999.0
 144   12:45   32.2    74    8.4   281    11.3   999.00    688.1    999.0    999000   999000   999.0    999000   999.0
 144   12:50   31.9    78    7.9   277    10.7   999.00    688.2    999.0    999000   999000   999.0    999000   999.0
 144   12:55   31.1    81    8.9   297    12.2   999.00    688.1    999.0    999000   999000   999.0    999000   999.0
 144   13:00   30.1    84    9.8   295    13.0   999.00    688.1    999.0    999000   999000   999.0    999000   999.0
 144   13:05   30.4    84    8.3   302    11.1   999.00    688.2    999.0    999000   999000   999.0    999000   999.0
 144   13:10   30.6    83    9.0   303    12.0   999.00    688.2    999.0    999000   999000   999.0    999000   999.0
 144   13:15   30.3    82    8.4   298    11.3   999.00    688.2    999.0    999000   999000   999.0    999000   999.0
 144   13:20   30.3    85    8.1   306    10.7   999.00    688.2    999.0    999000   999000   999.0    999000   999.0
 144   13:25   30.3    84    7.7   292    10.6   999.00    688.2    999.0    999000   999000   999.0    999000   999.0
 144   13:30   30.7    85    7.1   295     8.9   999.00    688.2    999.0    999000   999000   999.0    999000   999.0
 144   13:35   30.5    85    6.8   298     8.7   999.00    688.2    999.0    999000   999000   999.0    999000   999.0
 144   13:40   30.6    86    6.2   299     7.6   999.00    688.2    999.0    999000   999000   999.0    999000   999.0
 144   13:45   30.9    82    7.4   298     8.9   999.00    688.2    999.0    999000   999000   999.0    999000   999.0
 144   13:50   31.8    81    6.8   296     8.7   999.00    688.2    999.0    999000   999000   999.0    999000   999.0
 144   13:55   31.8    81    7.4   286     9.6   999.00    688.2    999.0    999000   999000   999.0    999000   999.0
 144   14:00   31.3    83    7.2   296     9.2   999.00    688.2    999.0    999000   999000   999.0    999000   999.0
 144   14:05   31.3    84    6.3   294     8.1   999.00    688.2    999.0    999000   999000   999.0    999000   999.0
 144   14:10   31.8    82    5.6   293     7.2   999.00    688.2    999.0    999000   999000   999.0    999000   999.0
 144   14:15   32.4    77    7.0   282    10.4   999.00    688.2    999.0    999000   999000   999.0    999000   999.0
 144   14:20   32.2    78    6.1   271     8.7   999.00    688.2    999.0    999000   999000   999.0    999000   999.0
 144   14:25   33.0    76    7.6   267    11.1   999.00    688.3    999.0    999000   999000   999.0    999000   999.0
 144   14:30   32.7    76    8.0   266    10.6   999.00    688.2    999.0    999000   999000   999.0    999000   999.0
 144   14:35   33.1    76    7.9   269    11.5   999.00    688.3    999.0    999000   999000   999.0    999000   999.0
 144   14:40   32.6    75    8.3   275    10.6   999.00    688.3    999.0    999000   999000   999.0    999000   999.0
 144   14:45   32.5    77    8.5   280    10.9   999.00    688.3    999.0    999000   999000   999.0    999000   999.0
 144   14:50   31.9    79    8.5   286    11.3   999.00    688.3    999.0    999000   999000   999.0    999000   999.0
 144   14:55   31.5    82    9.4   293    11.8   999.00    688.3    999.0    999000   999000   999.0    999000   999.0
 144   15:00   31.3    84    8.3   295    10.7   999.00    688.3    999.0    999000   999000   999.0    999000   999.0
 144   15:05   31.2    84    7.8   295     9.6   999.00    688.4    999.0    999000   999000   999.0    999000   999.0
 144   15:10   31.5    83    6.2   289     8.3   999.00    688.4    999.0    999000   999000   999.0    999000   999.0
 144   15:15   31.7    81    8.0   284    10.0   999.00    688.3    999.0    999000   999000   999.0    999000   999.0
 144   15:20   31.8    79    9.0   282    13.5   999.00    688.3    999.0    999000   999000   999.0    999000   999.0
 144   15:25   32.0    77    8.5   283    12.2   999.00    688.3    999.0    999000   999000   999.0    999000   999.0
 144   15:30   32.0    77   10.1   287    12.8   999.00    688.2    999.0    999000   999000   999.0    999000   999.0
 144   15:35   31.8    78    8.9   287    11.3   999.00    688.2    999.0    999000   999000   999.0    999000   999.0
 144   15:40   31.7    77    9.5   288    13.0   999.00    688.3    999.0    999000   999000   999.0    999000   999.0
 144   15:45   31.6    78    8.4   283    10.0   999.00    688.3    999.0    999000   999000   999.0    999000   999.0
 144   15:50   31.6    79    8.2   283    11.7   999.00    688.4    999.0    999000   999000   999.0    999000   999.0
 144   15:55   31.6    79    8.5   287    10.7   999.00    688.4    999.0    999000   999000   999.0    999000   999.0
 144   16:00   31.6    79    7.0   283     9.8   999.00    688.4    999.0    999000   999000   999.0    999000   999.0
 144   16:05   31.7    79    8.1   290    10.6   999.00    688.4    999.0    999000   999000   999.0    999000   999.0
 144   16:10   31.5    78    9.4   290    13.0   999.00    688.4    999.0    999000   999000   999.0    999000   999.0
 144   16:15   31.5    78    9.8   290    12.6   999.00    688.4    999.0    999000   999000   999.0    999000   999.0
 144   16:20   31.5    78   10.0   287    13.9   999.00    688.5    999.0    999000   999000   999.0    999000   999.0
 144   16:25   31.5    77    7.8   285    10.7   999.00    688.6    999.0    999000   999000   999.0    999000   999.0
 144   16:30   31.5    79    8.4   288    11.5   999.00    688.5    999.0    999000   999000   999.0    999000   999.0
 144   16:35   31.6    79    7.5   284    10.0   999.00    688.5    999.0    999000   999000   999.0    999000   999.0
 144   16:40   31.6    78    7.7   284     9.8   999.00    688.5    999.0    999000   999000   999.0    999000   999.0
 144   16:45   31.6    77    7.9   284    10.6   999.00    688.5    999.0    999000   999000   999.0    999000   999.0
 144   16:50   31.7    75    7.8   280    11.5   999.00    688.6    999.0    999000   999000   999.0    999000   999.0
 144   16:55   31.8    73    9.5   280    12.4   999.00    688.6    999.0    999000   999000   999.0    999000   999.0
 144   17:00   31.8    74    7.4   282     8.9   999.00    688.6    999.0    999000   999000   999.0    999000   999.0
 144   17:05   31.9    75    7.3   280    12.4   999.00    688.6    999.0    999000   999000   999.0    999000   999.0
 144   17:10   31.9    74    7.9   279    10.7   999.00    688.6    999.0    999000   999000   999.0    999000   999.0
 144   17:15   31.9    73    8.1   270    13.2   999.00    688.6    999.0    999000   999000   999.0    999000   999.0
 144   17:20   32.0    72    9.5   280    13.0   999.00    688.6    999.0    999000   999000   999.0    999000   999.0
 144   17:25   32.0    74    9.5   285    11.3   999.00    688.6    999.0    999000   999000   999.0    999000   999.0
 144   17:30   31.9    75    7.5   278    12.0   999.00    688.7    999.0    999000   999000   999.0    999000   999.0
 144   17:35   31.8    75    7.2   273    11.7   999.00    688.7    999.0    999000   999000   999.0    999000   999.0
 144   17:40   31.9    73   10.1   270    15.9   999.00    688.7    999.0    999000   999000   999.0    999000   999.0
 144   17:45   32.4    73    8.7   281    12.6   999.00    688.7    999.0    999000   999000   999.0    999000   999.0
 144   17:50   32.3    75    8.6   283    10.9   999.00    688.7    999.0    999000   999000   999.0    999000   999.0
 144   17:55   31.9    77    9.0   285    11.5   999.00    688.7    999.0    999000   999000   999.0    999000   999.0
 144   18:00   31.7    77    8.7   280    12.8   999.00    688.7    999.0    999000   999000   999.0    999000   999.0
 144   18:05   31.9    74    8.9   278    13.2   999.00    688.7    999.0    999000   999000   999.0    999000   999.0
 144   18:10   32.2    73    8.8   279    12.2   999.00    688.7    999.0    999000   999000   999.0    999000   999.0
 144   18:15   32.9    69    9.8   270    13.3   999.00    688.7    999.0    999000   999000   999.0    999000   999.0
 144   18:20   32.8    70    9.2   275    13.3   999.00    688.7    999.0    999000   999000   999.0    999000   999.0
 144   18:25   32.5    69    9.2   262    12.6   999.00    688.8    999.0    999000   999000   999.0    999000   999.0
 144   18:30   32.5    67   12.2   259    18.2   999.00    688.8    999.0    999000   999000   999.0    999000   999.0
 144   18:35   32.4    68   12.8   250    17.4   999.00    688.8    999.0    999000   999000   999.0    999000   999.0
 144   18:40   32.5    67   13.9   235    20.0   999.00    688.9    999.0    999000   999000   999.0    999000   999.0
 144   18:45   32.6    66   11.2   243    15.8   999.00    688.9    999.0    999000   999000   999.0    999000   999.0
 144   18:50   32.7    67   13.6   246    18.5   999.00    688.9    999.0    999000   999000   999.0    999000   999.0
 144   18:55   32.5    66   13.3   244    16.5   999.00    688.9    999.0    999000   999000   999.0    999000   999.0
 144   19:00   32.4    66   11.1   253    15.8   999.00    689.0    999.0    999000   999000   999.0    999000   999.0
 144   19:05   32.0    67   11.2   258    13.9   999.00    689.0    999.0    999000   999000   999.0    999000   999.0
 144   19:10   31.7    69    9.2   260    13.0   999.00    689.0    999.0    999000   999000   999.0    999000   999.0
 144   19:15   31.5    70   12.0   259    16.7   999.00    689.0    999.0    999000   999000   999.0    999000   999.0
 144   19:20   31.2    71   10.8   264    17.1   999.00    689.0    999.0    999000   999000   999.0    999000   999.0
 144   19:25   31.1    71   10.6   269    16.5   999.00    689.0    999.0    999000   999000   999.0    999000   999.0
 144   19:30   31.1    70   10.7   265    14.8   999.00    689.0    999.0    999000   999000   999.0    999000   999.0
 144   19:35   31.1    70   10.9   265    17.6   999.00    689.1    999.0    999000   999000   999.0    999000   999.0
 144   19:40   30.8    74    9.1   272    11.3   999.00    689.1    999.0    999000   999000   999.0    999000   999.0
 144   19:45   30.2    80    9.0   277    12.0   999.00    689.1    999.0    999000   999000   999.0    999000   999.0
 144   19:50   29.9    81   10.5   282    12.8   999.00    689.1    999.0    999000   999000   999.0    999000   999.0
 144   19:55   29.6    83    9.8   278    12.2   999.00    689.1    999.0    999000   999000   999.0    999000   999.0
 144   20:00   29.5    84    9.9   276    12.6   999.00    689.1    999.0    999000   999000   999.0    999000   999.0
 144   20:05   29.6    83    9.4   271    13.0   999.00    689.2    999.0    999000   999000   999.0    999000   999.0
 144   20:10   29.4    85    9.5   271    11.7   999.00    689.3    999.0    999000   999000   999.0    999000   999.0
 144   20:15   29.2    89   10.1   281    12.8   999.00    689.2    999.0    999000   999000   999.0    999000   999.0
 144   20:20   29.0    94   10.6   290    13.2   999.00    689.2    999.0    999000   999000   999.0    999000   999.0
 144   20:25   28.8    98   10.6   292    12.6   999.00    689.2    999.0    999000   999000   999.0    999000   999.0
 144   20:30   28.6   100   10.7   285    13.7   999.00    689.3    999.0    999000   999000   999.0    999000   999.0
 144   20:35   28.4   100    9.7   284    12.4   999.00    689.4    999.0    999000   999000   999.0    999000   999.0
 144   20:40   28.1   100   10.5   283    13.5   999.00    689.4    999.0    999000   999000   999.0    999000   999.0
 144   20:45   28.1   100   11.3   281    15.2   999.00    689.5    999.0    999000   999000   999.0    999000   999.0
 144   20:50   28.0   100   10.6   288    13.5   999.00    689.5    999.0    999000   999000   999.0    999000   999.0
 144   20:55   28.1   100   10.9   282    14.4   999.00    689.5    999.0    999000   999000   999.0    999000   999.0
 144   21:00   28.1   100   10.9   285    14.1   999.00    689.6    999.0    999000   999000   999.0    999000   999.0
 144   21:05   28.1   100    9.9   289    13.5   999.00    689.6    999.0    999000   999000   999.0    999000   999.0
 144   21:10   28.0   100    9.7   290    12.6   999.00    689.6    999.0    999000   999000   999.0    999000   999.0
 144   21:15   27.9   100    9.3   292    11.8   999.00    689.7    999.0    999000   999000   999.0    999000   999.0
 144   21:20   27.9   100    8.6   292    10.2   999.00    689.7    999.0    999000   999000   999.0    999000   999.0
 144   21:25   27.9   100    9.1   288    10.9   999.00    689.8    999.0    999000   999000   999.0    999000   999.0
 144   21:30   27.8   100    8.6   288    10.6   999.00    689.8    999.0    999000   999000   999.0    999000   999.0
 144   21:35   27.9   100    9.2   286    13.0   999.00    689.8    999.0    999000   999000   999.0    999000   999.0
 144   21:40   27.9   100    7.8   289     9.6   999.00    689.8    999.0    999000   999000   999.0    999000   999.0
 144   21:45   27.9   100    7.8   287     9.8   999.00    689.8    999.0    999000   999000   999.0    999000   999.0
 144   21:50   27.9   100    7.3   285     9.4   999.00    689.8    999.0    999000   999000   999.0    999000   999.0
 144   21:55   27.8   100    7.8   281    10.0   999.00    689.8    999.0    999000   999000   999.0    999000   999.0
 144   22:00   27.9   100    7.9   276    10.4   999.00    689.8    999.0    999000   999000   999.0    999000   999.0
 144   22:05   27.9   100    7.8   280    10.2   999.00    689.8    999.0    999000   999000   999.0    999000   999.0
 144   22:10   27.9   100    7.7   283     9.4   999.00    689.8    999.0    999000   999000   999.0    999000   999.0
 144   22:15   27.8   100    7.8   276     9.6   999.00    689.8    999.0    999000   999000   999.0    999000   999.0
 144   22:20   27.8   100    7.7   278    10.6   999.00    689.8    999.0    999000   999000   999.0    999000   999.0
 144   22:25   27.6   100    8.1   276     9.2   999.00    689.7    999.0    999000   999000   999.0    999000   999.0
 144   22:30   27.6   100    7.8   274    11.1   999.00    689.7    999.0    999000   999000   999.0    999000   999.0
 144   22:35   27.6   100    6.9   266     9.4   999.00    689.7    999.0    999000   999000   999.0    999000   999.0
 144   22:40   27.6   100    8.9   251    12.2   999.00    689.7    999.0    999000   999000   999.0    999000   999.0
 144   22:45   27.9   100    8.3   259    10.9   999.00    689.7    999.0    999000   999000   999.0    999000   999.0
 144   22:50   28.1   100    8.6   256    10.7   999.00    689.7    999.0    999000   999000   999.0    999000   999.0
 144   22:55   28.2   100    9.0   261    12.6   999.00    689.6    999.0    999000   999000   999.0    999000   999.0
 144   23:00   28.3   100   10.4   253    12.6   999.00    689.6    999.0    999000   999000   999.0    999000   999.0
 144   23:05   28.6   100   11.8   244    14.3   999.00    689.6    999.0    999000   999000   999.0    999000   999.0
 144   23:10   28.6   100   11.7   237    14.4   999.00    689.6    999.0    999000   999000   999.0    999000   999.0
 144   23:15   28.4   100   11.3   225    14.4   999.00    689.6    999.0    999000   999000   999.0    999000   999.0
 144   23:20   28.4   100   10.1   229    13.2   999.00    689.6    999.0    999000   999000   999.0    999000   999.0
 144   23:25   28.3   100   10.8   231    12.4   999.00    689.5    999.0    999000   999000   999.0    999000   999.0
 144   23:30   28.2   100   11.0   229    13.9   999.00    689.5    999.0    999000   999000   999.0    999000   999.0
 144   23:35   28.1   100   10.2   229    11.8   999.00    689.5    999.0    999000   999000   999.0    999000   999.0
 144   23:40   28.0   100    9.9   230    11.8   999.00    689.5    999.0    999000   999000   999.0    999000   999.0
 144   23:45   28.2   100   11.3   226    13.9   999.00    689.5    999.0    999000   999000   999.0    999000   999.0
 144   23:50   28.3   100   11.7   224    13.9   999.00    689.5    999.0    999000   999000   999.0    999000   999.0
 144   23:55   28.3   100    9.8   228    11.8   999.00    689.5    999.0    999000   999000   999.0    999000   999.0
 145    0:00   28.1   100    8.6   232    10.2   999.00    689.5    999.0    999000   999000   999.0    999000   999.0
 145    0:05   28.0   100    8.1   234     9.2   999.00    689.5    999.0    999000   999000   999.0    999000   999.0
 145    0:10   27.9   100    7.6   234     9.2   999.00    689.5    999.0    999000   999000   999.0    999000   999.0
 145    0:15   27.8   100    7.9   234     9.1   999.00    689.5    999.0    999000   999000   999.0    999000   999.0
 145    0:20   28.0   100    8.4   236    10.2   999.00    689.5    999.0    999000   999000   999.0    999000   999.0
 145    0:25   27.9   100    7.4   239     9.2   999.00    689.4    999.0    999000   999000   999.0    999000   999.0
 145    0:30   27.9   100    7.7   240     9.4   999.00    689.5    999.0    999000   999000   999.0    999000   999.0
 145    0:35   27.9   100    7.1   241     8.5   999.00    689.5    999.0    999000   999000   999.0    999000   999.0
 145    0:40   28.0   100    7.6   239     9.6   999.00    689.5    999.0    999000   999000   999.0    999000   999.0
 145    0:45   28.4    99   11.5   227    13.2   999.00    689.5    999.0    999000   999000   999.0    999000   999.0
 145    0:50   28.8    95   12.7   225    14.4   999.00    689.5    999.0    999000   999000   999.0    999000   999.0
 145    0:55   29.0    93   12.9   219    14.6   999.00    689.4    999.0    999000   999000   999.0    999000   999.0
 145    1:00   29.1    92   13.5   212    14.6   999.00    689.4    999.0    999000   999000   999.0    999000   999.0
 145    1:05   29.0    93   13.7   210    15.0   999.00    689.4    999.0    999000   999000   999.0    999000   999.0
 145    1:10   29.0    93   12.8   208    14.3   999.00    689.4    999.0    999000   999000   999.0    999000   999.0
 145    1:15   28.7    94   12.6   213    14.1   999.00    689.4    999.0    999000   999000   999.0    999000   999.0
 145    1:20   29.0    92   12.7   212    14.6   999.00    689.4    999.0    999000   999000   999.0    999000   999.0
 145    1:25   28.8    94   12.3   210    13.7   999.00    689.4    999.0    999000   999000   999.0    999000   999.0
 145    1:30   28.8    94   12.5   210    13.5   999.00    689.3    999.0    999000   999000   999.0    999000   999.0
 145    1:35   28.9    93   11.9   210    13.2   999.00    689.4    999.0    999000   999000   999.0    999000   999.0
 145    1:40   28.8    92   11.6   210    12.4   999.00    689.3    999.0    999000   999000   999.0    999000   999.0
 145    1:45   28.9    90   11.6   208    13.5   999.00    689.3    999.0    999000   999000   999.0    999000   999.0
 145    1:50   29.0    88   11.3   208    12.8   999.00    689.3    999.0    999000   999000   999.0    999000   999.0
 145    1:55   29.1    85   11.0   211    12.4   999.00    689.3    999.0    999000   999000   999.0    999000   999.0
 145    2:00   29.0    87   10.4   213    11.8   999.00    689.3    999.0    999000   999000   999.0    999000   999.0
 145    2:05   29.1    86    9.8   213    11.5   999.00    689.3    999.0    999000   999000   999.0    999000   999.0
 145    2:10   29.0    85    9.8   211    10.7   999.00    689.3    999.0    999000   999000   999.0    999000   999.0
 145    2:15   29.1    85    9.7   210    10.4   999.00    689.3    999.0    999000   999000   999.0    999000   999.0
 145    2:20   29.3    83   10.3   209    11.3   999.00    689.3    999.0    999000   999000   999.0    999000   999.0
 145    2:25   29.3    82    9.8   206    11.3   999.00    689.3    999.0    999000   999000   999.0    999000   999.0
 145    2:30   29.3    82   10.0   206    11.5   999.00    689.3    999.0    999000   999000   999.0    999000   999.0
 145    2:35   29.3    82    9.7   205    12.2   999.00    689.3    999.0    999000   999000   999.0    999000   999.0
 145    2:40   29.3    83    9.8   204    12.2   999.00    689.3    999.0    999000   999000   999.0    999000   999.0
 145    2:45   29.1    83    9.3   203    10.9   999.00    689.3    999.0    999000   999000   999.0    999000   999.0
 145    2:50   29.2    83    9.3   204    11.3   999.00    689.3    999.0    999000   999000   999.0    999000   999.0
 145    2:55   29.3    82    9.8   206    11.5   999.00    689.3    999.0    999000   999000   999.0    999000   999.0
 145    3:00   29.3    83    9.0   209    10.9   999.00    689.3    999.0    999000   999000   999.0    999000   999.0
 145    3:05   29.1    83    8.5   207     9.6   999.00    689.3    999.0    999000   999000   999.0    999000   999.0
 145    3:10   29.2    83    8.1   206     9.8   999.00    689.3    999.0    999000   999000   999.0    999000   999.0
 145    3:15   29.2    84    8.3   206     9.6   999.00    689.4    999.0    999000   999000   999.0    999000   999.0
 145    3:20   29.1    85    9.0   207    10.7   999.00    689.3    999.0    999000   999000   999.0    999000   999.0
 145    3:25   29.1    85    9.5   207    10.6   999.00    689.4    999.0    999000   999000   999.0    999000   999.0
 145    3:30   29.1    87   10.2   207    11.7   999.00    689.4    999.0    999000   999000   999.0    999000   999.0
 145    3:35   29.2    88    9.3   207    10.7   999.00    689.3    999.0    999000   999000   999.0    999000   999.0
 145    3:40   29.1    87    8.4   204    10.6   999.00    689.4    999.0    999000   999000   999.0    999000   999.0
 145    3:45   29.0    86    7.5   203     9.6   999.00    689.4    999.0    999000   999000   999.0    999000   999.0
 145    3:50   28.7    86    7.4   202     9.1   999.00    689.4    999.0    999000   999000   999.0    999000   999.0
 145    3:55   28.6    86    7.2   203     9.1   999.00    689.4    999.0    999000   999000   999.0    999000   999.0
 145    4:00   28.5    87    6.4   202     7.4   999.00    689.4    999.0    999000   999000   999.0    999000   999.0
 145    4:05   28.7    88    7.9   203    10.2   999.00    689.4    999.0    999000   999000   999.0    999000   999.0
 145    4:10   29.0    86    8.8   203    11.1   999.00    689.4    999.0    999000   999000   999.0    999000   999.0
 145    4:15   28.8    86    8.4   203     9.6   999.00    689.4    999.0    999000   999000   999.0    999000   999.0
 145    4:20   28.9    85    8.2   203    10.2   999.00    689.4    999.0    999000   999000   999.0    999000   999.0
 145    4:25   28.5    84    6.4   202     7.6   999.00    689.4    999.0    999000   999000   999.0    999000   999.0
 145    4:30   28.5    84    6.1   202     7.6   999.00    689.5    999.0    999000   999000   999.0    999000   999.0
 145    4:35   28.4    84    6.2   202     6.8   999.00    689.5    999.0    999000   999000   999.0    999000   999.0
 145    4:40   28.4    83    5.6   202     6.8   999.00    689.5    999.0    999000   999000   999.0    999000   999.0
 145    4:45   28.4    84    4.8   202     6.8   999.00    689.6    999.0    999000   999000   999.0    999000   999.0
 145    4:50   28.0    85    6.3   202     8.7   999.00    689.6    999.0    999000   999000   999.0    999000   999.0
 145    4:55   27.9    85    6.8   200     8.7   999.00    689.6    999.0    999000   999000   999.0    999000   999.0
 145    5:00   28.0    84    7.3   198     9.8   999.00    689.6    999.0    999000   999000   999.0    999000   999.0
 145    5:05   28.4    81    7.8   195     9.6   999.00    689.6    999.0    999000   999000   999.0    999000   999.0
 145    5:10   28.6    80    7.2   194     9.8   999.00    689.6    999.0    999000   999000   999.0    999000   999.0
 145    5:15   28.9    78    7.1   194     9.4   999.00    689.6    999.0    999000   999000   999.0    999000   999.0
 145    5:20   29.0    77    6.9   194     9.4   999.00    689.6    999.0    999000   999000   999.0    999000   999.0
 145    5:25   29.1    78    6.6   194     8.9   999.00    689.6    999.0    999000   999000   999.0    999000   999.0
 145    5:30   29.2    76    7.6   194    10.2   999.00    689.6    999.0    999000   999000   999.0    999000   999.0
 145    5:35   29.4    74    7.4   192    11.5   999.00    689.6    999.0    999000   999000   999.0    999000   999.0
 145    5:40   29.7    74    8.5   192    12.2   999.00    689.6    999.0    999000   999000   999.0    999000   999.0
 145    5:45   29.7    73    7.9   190    11.5   999.00    689.6    999.0    999000   999000   999.0    999000   999.0
 145    5:50   30.0    72    7.3   189     9.4   999.00    689.7    999.0    999000   999000   999.0    999000   999.0
 145    5:55   30.2    70    8.4   184    11.7   999.00    689.7    999.0    999000   999000   999.0    999000   999.0
 145    6:00   30.5    68    7.4   177    10.2   999.00    689.7    999.0    999000   999000   999.0    999000   999.0
 145    6:05   30.5    68    7.8   177    10.2   999.00    689.7    999.0    999000   999000   999.0    999000   999.0
 145    6:10   30.5    68    6.9   176     9.2   999.00    689.7    999.0    999000   999000   999.0    999000   999.0
 145    6:15   30.5    68    7.4   176    10.0   999.00    689.7    999.0    999000   999000   999.0    999000   999.0
 145    6:20   30.6    67    8.2   176    12.4   999.00    689.7    999.0    999000   999000   999.0    999000   999.0
 145    6:25   30.7    68    8.0   164    10.2   999.00    689.7    999.0    999000   999000   999.0    999000   999.0
 145    6:30   30.7    68    8.5   152    12.4   999.00    689.7    999.0    999000   999000   999.0    999000   999.0
 145    6:35   31.0    67    8.2   150    10.2   999.00    689.7    999.0    999000   999000   999.0    999000   999.0
 145    6:40   31.2    67    9.0   151    12.8   999.00    689.7    999.0    999000   999000   999.0    999000   999.0
 145    6:45   31.5    65    8.8   152    11.8   999.00    689.7    999.0    999000   999000   999.0    999000   999.0
 145    6:50   32.0    64    9.0   150    13.7   999.00    689.7    999.0    999000   999000   999.0    999000   999.0
 145    6:55   32.0    64    8.6   150    12.4   999.00    689.7    999.0    999000   999000   999.0    999000   999.0
 145    7:00   32.3    62    9.9   153    12.2   999.00    689.8    999.0    999000   999000   999.0    999000   999.0
 145    7:05   32.5    62    8.6   148    11.8   999.00    689.8    999.0    999000   999000   999.0    999000   999.0
 145    7:10   32.6    61    8.5   152    11.5   999.00    689.8    999.0    999000   999000   999.0    999000   999.0
 145    7:15   32.6    61    7.5   146    10.6   999.00    689.8    999.0    999000   999000   999.0    999000   999.0
 145    7:20   32.7    61    8.9   146    12.6   999.00    689.9    999.0    999000   999000   999.0    999000   999.0
 145    7:25   32.7    61    7.5   149    10.0   999.00    689.9    999.0    999000   999000   999.0    999000   999.0
 145    7:30   32.8    61    7.6   147    11.8   999.00    690.0    999.0    999000   999000   999.0    999000   999.0
 145    7:35   33.3    60    6.8   152     9.8   999.00    690.0    999.0    999000   999000   999.0    999000   999.0
 145    7:40   33.2    59    7.7   154    11.1   999.00    690.1    999.0    999000   999000   999.0    999000   999.0
 145    7:45   33.5    58    8.8   149    11.7   999.00    690.1    999.0    999000   999000   999.0    999000   999.0
 145    7:50   33.7    57    7.4   144    10.4   999.00    690.1    999.0    999000   999000   999.0    999000   999.0
 145    7:55   34.0    56    7.9   151    12.0   999.00    690.1    999.0    999000   999000   999.0    999000   999.0
 145    8:00   34.2    56    6.9   151     9.6   999.00    690.1    999.0    999000   999000   999.0    999000   999.0
 145    8:05   34.7    55    7.4   152     9.6   999.00    690.2    999.0    999000   999000   999.0    999000   999.0
 145    8:10   35.0    53    8.0   157    12.0   999.00    690.2    999.0    999000   999000   999.0    999000   999.0
 145    8:15   35.1    54    8.9   159    11.8   999.00    690.2    999.0    999000   999000   999.0    999000   999.0
 145    8:20   35.4    53    8.9   164    13.5   999.00    690.2    999.0    999000   999000   999.0    999000   999.0
 145    8:25   35.6    51    9.1   161    13.0   999.00    690.2    999.0    999000   999000   999.0    999000   999.0
 145    8:30   35.9    51    7.8   152    11.7   999.00    690.3    999.0    999000   999000   999.0    999000   999.0
 145    8:35   35.9    50   11.0   174    17.4   999.00    690.2    999.0    999000   999000   999.0    999000   999.0
 145    8:40   35.6    50   10.7   175    16.1   999.00    690.3    999.0    999000   999000   999.0    999000   999.0
 145    8:45   36.1    50    9.1   154    15.2   999.00    690.2    999.0    999000   999000   999.0    999000   999.0
 145    8:50   36.7    49    8.5   166    12.0   999.00    690.2    999.0    999000   999000   999.0    999000   999.0
 145    8:55   36.8    48   10.7   160    16.1   999.00    690.1    999.0    999000   999000   999.0    999000   999.0
 145    9:00   36.7    48   10.4   166    18.5   999.00    690.2    999.0    999000   999000   999.0    999000   999.0
 145    9:05   36.8    47   10.2   166    15.9   999.00    690.2    999.0    999000   999000   999.0    999000   999.0
 145    9:10   36.8    46    9.6   161    13.7   999.00    690.3    999.0    999000   999000   999.0    999000   999.0
 145    9:15   37.1    47    8.1   164    13.0   999.00    690.3    999.0    999000   999000   999.0    999000   999.0
 145    9:20   37.9    46    7.3   145    11.8   999.00    690.2    999.0    999000   999000   999.0    999000   999.0
 145    9:25   38.1    46    7.4   151    11.3   999.00    690.2    999.0    999000   999000   999.0    999000   999.0
 145    9:30   38.2    46    7.6   161    14.3   999.00    690.2    999.0    999000   999000   999.0    999000   999.0
 145    9:35   37.7    45   11.5   189    21.9   999.00    690.3    999.0    999000   999000   999.0    999000   999.0
 145    9:40   38.0    45    7.6   155     9.8   999.00    690.2    999.0    999000   999000   999.0    999000   999.0
 145    9:45   38.5    42   10.6   171    16.7   999.00    690.2    999.0    999000   999000   999.0    999000   999.0
 145    9:50   38.5    43   11.9   181    18.5   999.00    690.3    999.0    999000   999000   999.0    999000   999.0
 145    9:55   37.3    44    8.3   200    16.1   999.00    690.3    999.0    999000   999000   999.0    999000   999.0
 145   10:00   38.2    45    8.1   179    14.3   999.00    690.4    999.0    999000   999000   999.0    999000   999.0
 145   10:05   38.1    47    9.4   187    14.1   999.00    690.4    999.0    999000   999000   999.0    999000   999.0
 145   10:10   38.2    45    9.7   168    17.1   999.00    690.3    999.0    999000   999000   999.0    999000   999.0
 145   10:15   39.3    44    7.0   147    12.4   999.00    690.4    999.0    999000   999000   999.0    999000   999.0
 145   10:20   38.3    45    8.5   169    13.0   999.00    690.4    999.0    999000   999000   999.0    999000   999.0
 145   10:25   38.7    46    8.2   178    13.3   999.00    690.5    999.0    999000   999000   999.0    999000   999.0
 145   10:30   39.2    45    6.2   177     9.2   999.00    690.5    999.0    999000   999000   999.0    999000   999.0
 145   10:35   38.7    44    9.6   204    17.6   999.00    690.5    999.0    999000   999000   999.0    999000   999.0
 145   10:40   38.3    44   12.2   209    15.6   999.00    690.5    999.0    999000   999000   999.0    999000   999.0
 145   10:45   38.3    46   11.8   220    17.6   999.00    690.4    999.0    999000   999000   999.0    999000   999.0
 145   10:50   38.8    46    9.6   209    13.9   999.00    690.5    999.0    999000   999000   999.0    999000   999.0
 145   10:55   39.5    44    5.0   210    10.6   999.00    690.4    999.0    999000   999000   999.0    999000   999.0
 145   11:00   39.1    45    8.5   216    13.2   999.00    690.4    999.0    999000   999000   999.0    999000   999.0
 145   11:05   39.2    46    7.5   218    12.2   999.00    690.4    999.0    999000   999000   999.0    999000   999.0
 145   11:10   39.7    45    9.1   215    13.3   999.00    690.3    999.0    999000   999000   999.0    999000   999.0
 145   11:15   39.1    45   13.6   211    19.9   999.00    690.3    999.0    999000   999000   999.0    999000   999.0
 145   11:20   39.1    48    6.8   230    12.6   999.00    690.4    999.0    999000   999000   999.0    999000   999.0
 145   11:25   39.8    45    7.0   234    12.2   999.00    690.4    999.0    999000   999000   999.0    999000   999.0

Return to DRI Storm Peak Lab. graphs page.


Western Regional Climate Center,wrcc@dri.edu